sensor_id;sensor_type;location;lat;lon;timestamp;P1;durP1;ratioP1;P2;durP2;ratioP2
10661;SDS011;5379;51.034;7.006;2022-09-09T00:01:54;3.50;;;1.60;;
10661;SDS011;5379;51.034;7.006;2022-09-09T00:04:27;2.97;;;1.50;;
10661;SDS011;5379;51.034;7.006;2022-09-09T00:06:59;1.67;;;1.27;;
10661;SDS011;5379;51.034;7.006;2022-09-09T00:09:31;3.07;;;1.57;;
10661;SDS011;5379;51.034;7.006;2022-09-09T00:12:08;2.97;;;1.80;;
10661;SDS011;5379;51.034;7.006;2022-09-09T00:14:39;4.47;;;1.57;;
10661;SDS011;5379;51.034;7.006;2022-09-09T00:17:14;4.43;;;1.10;;
10661;SDS011;5379;51.034;7.006;2022-09-09T00:19:48;1.50;;;1.40;;
10661;SDS011;5379;51.034;7.006;2022-09-09T00:22:22;6.93;;;1.60;;
10661;SDS011;5379;51.034;7.006;2022-09-09T00:24:52;1.30;;;1.20;;
10661;SDS011;5379;51.034;7.006;2022-09-09T00:27:23;1.70;;;1.37;;
10661;SDS011;5379;51.034;7.006;2022-09-09T00:29:56;3.33;;;1.43;;
10661;SDS011;5379;51.034;7.006;2022-09-09T00:32:27;3.40;;;1.40;;
10661;SDS011;5379;51.034;7.006;2022-09-09T00:34:58;3.17;;;1.50;;
10661;SDS011;5379;51.034;7.006;2022-09-09T00:37:31;1.43;;;1.33;;
10661;SDS011;5379;51.034;7.006;2022-09-09T00:40:00;1.57;;;1.40;;
10661;SDS011;5379;51.034;7.006;2022-09-09T00:42:36;1.50;;;1.40;;
10661;SDS011;5379;51.034;7.006;2022-09-09T00:45:12;1.50;;;1.40;;
10661;SDS011;5379;51.034;7.006;2022-09-09T00:47:51;2.17;;;1.47;;
10661;SDS011;5379;51.034;7.006;2022-09-09T00:50:24;4.07;;;1.23;;
10661;SDS011;5379;51.034;7.006;2022-09-09T00:53:09;2.10;;;1.60;;
10661;SDS011;5379;51.034;7.006;2022-09-09T00:55:52;2.27;;;1.40;;
10661;SDS011;5379;51.034;7.006;2022-09-09T00:58:25;1.83;;;1.33;;
10661;SDS011;5379;51.034;7.006;2022-09-09T01:00:53;0.87;;;0.87;;
10661;SDS011;5379;51.034;7.006;2022-09-09T01:03:30;1.50;;;1.40;;
10661;SDS011;5379;51.034;7.006;2022-09-09T01:06:01;2.20;;;1.37;;
10661;SDS011;5379;51.034;7.006;2022-09-09T01:08:36;6.90;;;1.70;;
10661;SDS011;5379;51.034;7.006;2022-09-09T01:11:16;3.27;;;1.20;;
10661;SDS011;5379;51.034;7.006;2022-09-09T01:13:49;2.37;;;1.63;;
10661;SDS011;5379;51.034;7.006;2022-09-09T01:16:24;1.57;;;1.20;;
10661;SDS011;5379;51.034;7.006;2022-09-09T01:18:53;1.63;;;1.37;;
10661;SDS011;5379;51.034;7.006;2022-09-09T01:21:25;3.13;;;1.50;;
10661;SDS011;5379;51.034;7.006;2022-09-09T01:24:15;1.83;;;1.07;;
10661;SDS011;5379;51.034;7.006;2022-09-09T01:26:50;0.97;;;0.97;;
10661;SDS011;5379;51.034;7.006;2022-09-09T01:29:21;3.43;;;1.63;;
10661;SDS011;5379;51.034;7.006;2022-09-09T01:31:52;4.27;;;1.47;;
10661;SDS011;5379;51.034;7.006;2022-09-09T01:34:21;5.33;;;1.43;;
10661;SDS011;5379;51.034;7.006;2022-09-09T01:36:49;1.40;;;1.00;;
10661;SDS011;5379;51.034;7.006;2022-09-09T01:39:23;4.10;;;1.00;;
10661;SDS011;5379;51.034;7.006;2022-09-09T01:41:52;1.33;;;0.90;;
10661;SDS011;5379;51.034;7.006;2022-09-09T01:44:21;6.57;;;1.03;;
10661;SDS011;5379;51.034;7.006;2022-09-09T01:46:48;1.30;;;1.20;;
10661;SDS011;5379;51.034;7.006;2022-09-09T01:49:15;1.57;;;1.27;;
10661;SDS011;5379;51.034;7.006;2022-09-09T01:51:43;1.50;;;1.33;;
10661;SDS011;5379;51.034;7.006;2022-09-09T01:54:13;1.30;;;1.20;;
10661;SDS011;5379;51.034;7.006;2022-09-09T01:56:43;1.50;;;1.40;;
10661;SDS011;5379;51.034;7.006;2022-09-09T02:02:15;0.90;;;0.90;;
10661;SDS011;5379;51.034;7.006;2022-09-09T02:04:45;1.47;;;1.30;;
10661;SDS011;5379;51.034;7.006;2022-09-09T02:07:33;1.13;;;1.03;;
10661;SDS011;5379;51.034;7.006;2022-09-09T02:10:08;1.27;;;1.17;;
10661;SDS011;5379;51.034;7.006;2022-09-09T02:12:39;1.03;;;1.03;;
10661;SDS011;5379;51.034;7.006;2022-09-09T02:15:16;1.13;;;1.03;;
10661;SDS011;5379;51.034;7.006;2022-09-09T02:17:48;1.93;;;1.17;;
10661;SDS011;5379;51.034;7.006;2022-09-09T02:20:18;2.13;;;1.27;;
10661;SDS011;5379;51.034;7.006;2022-09-09T02:22:47;2.43;;;1.20;;
10661;SDS011;5379;51.034;7.006;2022-09-09T02:25:17;1.10;;;1.10;;
10661;SDS011;5379;51.034;7.006;2022-09-09T02:27:47;2.47;;;1.60;;
10661;SDS011;5379;51.034;7.006;2022-09-09T02:30:18;1.23;;;1.13;;
10661;SDS011;5379;51.034;7.006;2022-09-09T02:32:46;4.10;;;1.37;;
10661;SDS011;5379;51.034;7.006;2022-09-09T02:35:17;3.73;;;1.40;;
10661;SDS011;5379;51.034;7.006;2022-09-09T02:37:47;3.70;;;1.27;;
10661;SDS011;5379;51.034;7.006;2022-09-09T02:40:18;1.80;;;1.13;;
10661;SDS011;5379;51.034;7.006;2022-09-09T02:42:46;1.30;;;1.07;;
10661;SDS011;5379;51.034;7.006;2022-09-09T02:45:15;4.57;;;1.50;;
10661;SDS011;5379;51.034;7.006;2022-09-09T02:47:47;1.03;;;1.03;;
10661;SDS011;5379;51.034;7.006;2022-09-09T02:50:22;3.10;;;1.10;;
10661;SDS011;5379;51.034;7.006;2022-09-09T02:52:55;7.93;;;1.53;;
10661;SDS011;5379;51.034;7.006;2022-09-09T02:55:36;1.37;;;1.27;;
10661;SDS011;5379;51.034;7.006;2022-09-09T02:58:05;1.60;;;1.27;;
10661;SDS011;5379;51.034;7.006;2022-09-09T03:00:38;1.07;;;1.00;;
10661;SDS011;5379;51.034;7.006;2022-09-09T03:03:06;2.27;;;1.57;;
10661;SDS011;5379;51.034;7.006;2022-09-09T03:05:34;2.03;;;1.03;;
10661;SDS011;5379;51.034;7.006;2022-09-09T03:08:02;5.23;;;1.70;;
10661;SDS011;5379;51.034;7.006;2022-09-09T03:10:30;1.30;;;1.20;;
10661;SDS011;5379;51.034;7.006;2022-09-09T03:12:58;1.20;;;1.10;;
10661;SDS011;5379;51.034;7.006;2022-09-09T03:15:25;1.07;;;1.03;;
10661;SDS011;5379;51.034;7.006;2022-09-09T03:17:55;7.70;;;2.17;;
10661;SDS011;5379;51.034;7.006;2022-09-09T03:20:23;1.87;;;1.30;;
10661;SDS011;5379;51.034;7.006;2022-09-09T03:22:51;1.23;;;1.00;;
10661;SDS011;5379;51.034;7.006;2022-09-09T03:25:18;3.33;;;1.73;;
10661;SDS011;5379;51.034;7.006;2022-09-09T03:27:45;1.87;;;1.60;;
10661;SDS011;5379;51.034;7.006;2022-09-09T03:30:13;0.90;;;0.90;;
10661;SDS011;5379;51.034;7.006;2022-09-09T03:32:40;1.30;;;1.20;;
10661;SDS011;5379;51.034;7.006;2022-09-09T03:35:09;6.13;;;1.87;;
10661;SDS011;5379;51.034;7.006;2022-09-09T03:37:36;1.47;;;1.23;;
10661;SDS011;5379;51.034;7.006;2022-09-09T03:40:04;4.80;;;1.30;;
10661;SDS011;5379;51.034;7.006;2022-09-09T03:42:32;1.60;;;1.03;;
10661;SDS011;5379;51.034;7.006;2022-09-09T03:45:02;1.30;;;1.20;;
10661;SDS011;5379;51.034;7.006;2022-09-09T03:47:30;2.60;;;1.37;;
10661;SDS011;5379;51.034;7.006;2022-09-09T03:49:57;1.70;;;1.60;;
10661;SDS011;5379;51.034;7.006;2022-09-09T03:52:25;1.07;;;1.00;;
10661;SDS011;5379;51.034;7.006;2022-09-09T03:54:52;6.30;;;1.47;;
10661;SDS011;5379;51.034;7.006;2022-09-09T03:57:20;2.47;;;1.50;;
10661;SDS011;5379;51.034;7.006;2022-09-09T03:59:47;2.73;;;1.53;;
10661;SDS011;5379;51.034;7.006;2022-09-09T04:02:14;1.93;;;1.40;;
10661;SDS011;5379;51.034;7.006;2022-09-09T04:04:41;3.33;;;1.20;;
10661;SDS011;5379;51.034;7.006;2022-09-09T04:07:08;2.17;;;1.50;;
10661;SDS011;5379;51.034;7.006;2022-09-09T04:09:38;1.87;;;1.43;;
10661;SDS011;5379;51.034;7.006;2022-09-09T04:12:05;3.43;;;1.50;;
10661;SDS011;5379;51.034;7.006;2022-09-09T04:14:32;2.93;;;1.67;;
10661;SDS011;5379;51.034;7.006;2022-09-09T04:16:59;1.97;;;1.23;;
10661;SDS011;5379;51.034;7.006;2022-09-09T04:19:29;3.00;;;1.53;;
10661;SDS011;5379;51.034;7.006;2022-09-09T04:21:56;5.77;;;1.53;;
10661;SDS011;5379;51.034;7.006;2022-09-09T04:24:24;1.77;;;1.43;;
10661;SDS011;5379;51.034;7.006;2022-09-09T04:26:53;2.83;;;1.37;;
10661;SDS011;5379;51.034;7.006;2022-09-09T04:29:20;2.17;;;1.50;;
10661;SDS011;5379;51.034;7.006;2022-09-09T04:31:47;3.50;;;1.70;;
10661;SDS011;5379;51.034;7.006;2022-09-09T04:34:14;1.83;;;1.30;;
10661;SDS011;5379;51.034;7.006;2022-09-09T04:36:41;2.80;;;1.60;;
10661;SDS011;5379;51.034;7.006;2022-09-09T04:39:08;1.50;;;1.40;;
10661;SDS011;5379;51.034;7.006;2022-09-09T04:41:35;2.10;;;1.60;;
10661;SDS011;5379;51.034;7.006;2022-09-09T04:44:04;2.80;;;1.63;;
10661;SDS011;5379;51.034;7.006;2022-09-09T04:46:31;3.17;;;1.53;;
10661;SDS011;5379;51.034;7.006;2022-09-09T04:48:59;8.33;;;2.00;;
10661;SDS011;5379;51.034;7.006;2022-09-09T04:51:26;2.30;;;1.50;;
10661;SDS011;5379;51.034;7.006;2022-09-09T04:53:53;2.17;;;1.53;;
10661;SDS011;5379;51.034;7.006;2022-09-09T04:56:20;5.40;;;2.57;;
10661;SDS011;5379;51.034;7.006;2022-09-09T04:58:47;2.63;;;1.60;;
10661;SDS011;5379;51.034;7.006;2022-09-09T05:01:16;1.90;;;1.50;;
10661;SDS011;5379;51.034;7.006;2022-09-09T05:03:45;4.33;;;1.70;;
10661;SDS011;5379;51.034;7.006;2022-09-09T05:06:13;4.70;;;2.00;;
10661;SDS011;5379;51.034;7.006;2022-09-09T05:08:41;6.20;;;2.10;;
10661;SDS011;5379;51.034;7.006;2022-09-09T05:11:13;2.90;;;1.57;;
10661;SDS011;5379;51.034;7.006;2022-09-09T05:13:42;4.83;;;1.60;;
10661;SDS011;5379;51.034;7.006;2022-09-09T05:16:09;1.70;;;1.60;;
10661;SDS011;5379;51.034;7.006;2022-09-09T05:18:38;2.67;;;1.53;;
10661;SDS011;5379;51.034;7.006;2022-09-09T05:21:05;2.53;;;1.80;;
10661;SDS011;5379;51.034;7.006;2022-09-09T05:23:32;1.63;;;1.53;;
10661;SDS011;5379;51.034;7.006;2022-09-09T05:26:00;4.03;;;1.80;;
10661;SDS011;5379;51.034;7.006;2022-09-09T05:28:28;2.83;;;1.50;;
10661;SDS011;5379;51.034;7.006;2022-09-09T05:30:58;5.10;;;1.70;;
10661;SDS011;5379;51.034;7.006;2022-09-09T05:33:28;2.70;;;1.70;;
10661;SDS011;5379;51.034;7.006;2022-09-09T05:35:58;2.73;;;1.47;;
10661;SDS011;5379;51.034;7.006;2022-09-09T05:38:26;6.20;;;1.70;;
10661;SDS011;5379;51.034;7.006;2022-09-09T05:40:54;6.47;;;1.73;;
10661;SDS011;5379;51.034;7.006;2022-09-09T05:43:21;1.50;;;1.40;;
10661;SDS011;5379;51.034;7.006;2022-09-09T05:45:58;1.50;;;1.40;;
10661;SDS011;5379;51.034;7.006;2022-09-09T05:48:27;2.83;;;1.73;;
10661;SDS011;5379;51.034;7.006;2022-09-09T05:50:55;3.67;;;1.80;;
10661;SDS011;5379;51.034;7.006;2022-09-09T05:53:24;2.03;;;1.53;;
10661;SDS011;5379;51.034;7.006;2022-09-09T05:55:57;6.10;;;1.97;;
10661;SDS011;5379;51.034;7.006;2022-09-09T05:58:26;1.80;;;1.67;;
10661;SDS011;5379;51.034;7.006;2022-09-09T06:00:59;2.90;;;1.80;;
10661;SDS011;5379;51.034;7.006;2022-09-09T06:03:27;7.80;;;2.00;;
10661;SDS011;5379;51.034;7.006;2022-09-09T06:05:59;5.53;;;1.60;;
10661;SDS011;5379;51.034;7.006;2022-09-09T06:08:30;2.77;;;1.60;;
10661;SDS011;5379;51.034;7.006;2022-09-09T06:11:00;3.80;;;1.60;;
10661;SDS011;5379;51.034;7.006;2022-09-09T06:13:29;2.30;;;1.60;;
10661;SDS011;5379;51.034;7.006;2022-09-09T06:15:56;3.40;;;2.10;;
10661;SDS011;5379;51.034;7.006;2022-09-09T06:18:24;3.20;;;1.97;;
10661;SDS011;5379;51.034;7.006;2022-09-09T06:20:56;3.13;;;2.20;;
10661;SDS011;5379;51.034;7.006;2022-09-09T06:23:25;3.63;;;1.60;;
10661;SDS011;5379;51.034;7.006;2022-09-09T06:25:59;2.27;;;1.83;;
10661;SDS011;5379;51.034;7.006;2022-09-09T06:28:27;1.73;;;1.40;;
10661;SDS011;5379;51.034;7.006;2022-09-09T06:30:57;4.50;;;1.63;;
10661;SDS011;5379;51.034;7.006;2022-09-09T06:33:24;4.97;;;2.30;;
10661;SDS011;5379;51.034;7.006;2022-09-09T06:35:52;3.30;;;2.27;;
10661;SDS011;5379;51.034;7.006;2022-09-09T06:38:22;2.63;;;1.90;;
10661;SDS011;5379;51.034;7.006;2022-09-09T06:40:54;7.13;;;2.17;;
10661;SDS011;5379;51.034;7.006;2022-09-09T06:43:23;2.13;;;1.70;;
10661;SDS011;5379;51.034;7.006;2022-09-09T06:45:54;2.50;;;1.53;;
10661;SDS011;5379;51.034;7.006;2022-09-09T06:48:22;1.33;;;1.23;;
10661;SDS011;5379;51.034;7.006;2022-09-09T06:50:51;5.90;;;1.63;;
10661;SDS011;5379;51.034;7.006;2022-09-09T06:53:25;7.63;;;2.07;;
10661;SDS011;5379;51.034;7.006;2022-09-09T06:55:54;3.13;;;1.87;;
10661;SDS011;5379;51.034;7.006;2022-09-09T06:58:21;1.87;;;1.20;;
10661;SDS011;5379;51.034;7.006;2022-09-09T07:00:48;2.43;;;1.33;;
10661;SDS011;5379;51.034;7.006;2022-09-09T07:03:15;2.30;;;1.57;;
10661;SDS011;5379;51.034;7.006;2022-09-09T07:05:42;5.43;;;1.63;;
10661;SDS011;5379;51.034;7.006;2022-09-09T07:08:10;1.40;;;1.30;;
10661;SDS011;5379;51.034;7.006;2022-09-09T07:10:37;2.10;;;1.10;;
10661;SDS011;5379;51.034;7.006;2022-09-09T07:13:05;2.33;;;1.20;;
10661;SDS011;5379;51.034;7.006;2022-09-09T07:15:32;2.90;;;1.60;;
10661;SDS011;5379;51.034;7.006;2022-09-09T07:18:00;2.60;;;1.43;;
10661;SDS011;5379;51.034;7.006;2022-09-09T07:20:28;3.20;;;1.50;;
10661;SDS011;5379;51.034;7.006;2022-09-09T07:22:55;3.37;;;1.50;;
10661;SDS011;5379;51.034;7.006;2022-09-09T07:25:23;2.27;;;1.47;;
10661;SDS011;5379;51.034;7.006;2022-09-09T07:27:51;4.33;;;2.10;;
10661;SDS011;5379;51.034;7.006;2022-09-09T07:30:21;5.67;;;1.80;;
10661;SDS011;5379;51.034;7.006;2022-09-09T07:32:48;2.27;;;1.73;;
10661;SDS011;5379;51.034;7.006;2022-09-09T07:35:17;4.27;;;1.30;;
10661;SDS011;5379;51.034;7.006;2022-09-09T07:37:45;2.80;;;1.30;;
10661;SDS011;5379;51.034;7.006;2022-09-09T07:40:12;1.37;;;1.20;;
10661;SDS011;5379;51.034;7.006;2022-09-09T07:42:40;2.03;;;1.30;;
10661;SDS011;5379;51.034;7.006;2022-09-09T07:45:07;2.17;;;1.27;;
10661;SDS011;5379;51.034;7.006;2022-09-09T07:47:35;1.53;;;1.43;;
10661;SDS011;5379;51.034;7.006;2022-09-09T07:50:02;1.80;;;1.40;;
10661;SDS011;5379;51.034;7.006;2022-09-09T07:52:30;1.60;;;1.50;;
10661;SDS011;5379;51.034;7.006;2022-09-09T07:54:57;3.83;;;1.53;;
10661;SDS011;5379;51.034;7.006;2022-09-09T07:57:25;5.03;;;1.63;;
10661;SDS011;5379;51.034;7.006;2022-09-09T07:59:52;3.13;;;1.73;;
10661;SDS011;5379;51.034;7.006;2022-09-09T08:02:21;6.53;;;1.93;;
10661;SDS011;5379;51.034;7.006;2022-09-09T08:04:50;4.13;;;1.13;;
10661;SDS011;5379;51.034;7.006;2022-09-09T08:07:17;2.93;;;1.47;;
10661;SDS011;5379;51.034;7.006;2022-09-09T08:09:46;3.50;;;1.60;;
10661;SDS011;5379;51.034;7.006;2022-09-09T08:12:14;1.80;;;1.47;;
10661;SDS011;5379;51.034;7.006;2022-09-09T08:14:41;1.63;;;1.43;;
10661;SDS011;5379;51.034;7.006;2022-09-09T08:17:08;3.67;;;1.40;;
10661;SDS011;5379;51.034;7.006;2022-09-09T08:19:35;1.60;;;1.23;;
10661;SDS011;5379;51.034;7.006;2022-09-09T08:22:03;3.20;;;1.63;;
10661;SDS011;5379;51.034;7.006;2022-09-09T08:24:31;2.30;;;1.43;;
10661;SDS011;5379;51.034;7.006;2022-09-09T08:26:58;6.17;;;1.20;;
10661;SDS011;5379;51.034;7.006;2022-09-09T08:29:25;3.20;;;1.30;;
10661;SDS011;5379;51.034;7.006;2022-09-09T08:31:54;3.50;;;1.90;;
10661;SDS011;5379;51.034;7.006;2022-09-09T08:34:22;3.33;;;1.90;;
10661;SDS011;5379;51.034;7.006;2022-09-09T08:36:52;2.63;;;1.70;;
10661;SDS011;5379;51.034;7.006;2022-09-09T08:39:23;2.13;;;1.43;;
10661;SDS011;5379;51.034;7.006;2022-09-09T08:44:54;2.23;;;1.37;;
10661;SDS011;5379;51.034;7.006;2022-09-09T08:47:42;1.67;;;1.50;;
10661;SDS011;5379;51.034;7.006;2022-09-09T08:50:21;1.60;;;1.43;;
10661;SDS011;5379;51.034;7.006;2022-09-09T08:52:54;1.83;;;1.50;;
10661;SDS011;5379;51.034;7.006;2022-09-09T08:55:28;3.50;;;1.70;;
10661;SDS011;5379;51.034;7.006;2022-09-09T08:58:05;3.50;;;1.70;;
10661;SDS011;5379;51.034;7.006;2022-09-09T09:00:40;6.13;;;1.60;;
10661;SDS011;5379;51.034;7.006;2022-09-09T09:03:34;2.00;;;1.23;;
10661;SDS011;5379;51.034;7.006;2022-09-09T09:06:11;2.90;;;0.97;;
10661;SDS011;5379;51.034;7.006;2022-09-09T09:08:55;8.13;;;1.47;;
10661;SDS011;5379;51.034;7.006;2022-09-09T09:11:28;6.87;;;1.27;;
10661;SDS011;5379;51.034;7.006;2022-09-09T09:14:02;1.70;;;1.30;;
10661;SDS011;5379;51.034;7.006;2022-09-09T09:16:38;1.00;;;0.93;;
10661;SDS011;5379;51.034;7.006;2022-09-09T09:19:10;3.00;;;1.27;;
10661;SDS011;5379;51.034;7.006;2022-09-09T09:21:40;0.87;;;0.77;;
10661;SDS011;5379;51.034;7.006;2022-09-09T09:24:12;3.27;;;1.50;;
10661;SDS011;5379;51.034;7.006;2022-09-09T09:26:45;1.80;;;1.03;;
10661;SDS011;5379;51.034;7.006;2022-09-09T09:29:13;1.90;;;1.10;;
10661;SDS011;5379;51.034;7.006;2022-09-09T09:31:44;3.37;;;1.43;;
10661;SDS011;5379;51.034;7.006;2022-09-09T09:34:14;1.20;;;1.10;;
10661;SDS011;5379;51.034;7.006;2022-09-09T09:36:43;2.13;;;1.17;;
10661;SDS011;5379;51.034;7.006;2022-09-09T09:39:21;1.23;;;1.00;;
10661;SDS011;5379;51.034;7.006;2022-09-09T09:41:51;2.67;;;1.37;;
10661;SDS011;5379;51.034;7.006;2022-09-09T09:44:23;1.83;;;1.23;;
10661;SDS011;5379;51.034;7.006;2022-09-09T09:46:52;2.67;;;1.10;;
10661;SDS011;5379;51.034;7.006;2022-09-09T09:49:31;1.47;;;1.13;;
10661;SDS011;5379;51.034;7.006;2022-09-09T09:51:59;2.40;;;1.07;;
10661;SDS011;5379;51.034;7.006;2022-09-09T09:54:28;1.20;;;1.00;;
10661;SDS011;5379;51.034;7.006;2022-09-09T09:56:57;1.70;;;1.10;;
10661;SDS011;5379;51.034;7.006;2022-09-09T09:59:35;1.43;;;1.20;;
10661;SDS011;5379;51.034;7.006;2022-09-09T10:02:13;0.83;;;0.70;;
10661;SDS011;5379;51.034;7.006;2022-09-09T10:04:42;0.87;;;0.80;;
10661;SDS011;5379;51.034;7.006;2022-09-09T10:07:10;2.27;;;0.97;;
10661;SDS011;5379;51.034;7.006;2022-09-09T10:09:38;1.37;;;0.97;;
10661;SDS011;5379;51.034;7.006;2022-09-09T10:12:08;1.73;;;1.07;;
10661;SDS011;5379;51.034;7.006;2022-09-09T10:14:48;2.50;;;1.00;;
10661;SDS011;5379;51.034;7.006;2022-09-09T10:17:30;1.57;;;1.20;;
10661;SDS011;5379;51.034;7.006;2022-09-09T10:20:10;1.97;;;1.20;;
10661;SDS011;5379;51.034;7.006;2022-09-09T10:22:50;1.07;;;0.83;;
10661;SDS011;5379;51.034;7.006;2022-09-09T10:25:24;2.03;;;1.00;;
10661;SDS011;5379;51.034;7.006;2022-09-09T10:28:14;1.00;;;1.00;;
10661;SDS011;5379;51.034;7.006;2022-09-09T10:30:57;5.50;;;1.13;;
10661;SDS011;5379;51.034;7.006;2022-09-09T10:33:37;4.30;;;1.00;;
10661;SDS011;5379;51.034;7.006;2022-09-09T10:36:12;1.50;;;1.00;;
10661;SDS011;5379;51.034;7.006;2022-09-09T10:38:44;0.93;;;0.90;;
10661;SDS011;5379;51.034;7.006;2022-09-09T10:41:15;2.43;;;1.27;;
10661;SDS011;5379;51.034;7.006;2022-09-09T10:43:52;1.03;;;0.70;;
10661;SDS011;5379;51.034;7.006;2022-09-09T10:46:35;0.70;;;0.70;;
10661;SDS011;5379;51.034;7.006;2022-09-09T10:49:13;1.37;;;1.27;;
10661;SDS011;5379;51.034;7.006;2022-09-09T10:51:52;2.80;;;1.20;;
10661;SDS011;5379;51.034;7.006;2022-09-09T10:54:32;1.13;;;1.03;;
10661;SDS011;5379;51.034;7.006;2022-09-09T10:57:08;1.50;;;1.20;;
10661;SDS011;5379;51.034;7.006;2022-09-09T10:59:40;0.80;;;0.80;;
10661;SDS011;5379;51.034;7.006;2022-09-09T11:02:13;1.87;;;1.10;;
10661;SDS011;5379;51.034;7.006;2022-09-09T11:04:47;1.10;;;0.87;;
10661;SDS011;5379;51.034;7.006;2022-09-09T11:07:20;3.83;;;1.13;;
10661;SDS011;5379;51.034;7.006;2022-09-09T11:09:53;1.03;;;0.80;;
10661;SDS011;5379;51.034;7.006;2022-09-09T11:12:27;1.30;;;1.20;;
10661;SDS011;5379;51.034;7.006;2022-09-09T11:14:57;1.17;;;1.07;;
10661;SDS011;5379;51.034;7.006;2022-09-09T11:17:33;0.90;;;0.90;;
10661;SDS011;5379;51.034;7.006;2022-09-09T11:20:06;1.63;;;0.87;;
10661;SDS011;5379;51.034;7.006;2022-09-09T11:22:39;2.47;;;1.20;;
10661;SDS011;5379;51.034;7.006;2022-09-09T11:25:15;2.40;;;1.30;;
10661;SDS011;5379;51.034;7.006;2022-09-09T11:27:49;3.50;;;1.20;;
10661;SDS011;5379;51.034;7.006;2022-09-09T11:30:30;0.80;;;0.80;;
10661;SDS011;5379;51.034;7.006;2022-09-09T11:33:09;0.87;;;0.67;;
10661;SDS011;5379;51.034;7.006;2022-09-09T11:35:57;1.13;;;1.00;;
10661;SDS011;5379;51.034;7.006;2022-09-09T11:38:35;1.03;;;0.80;;
10661;SDS011;5379;51.034;7.006;2022-09-09T11:41:10;1.40;;;0.87;;
10661;SDS011;5379;51.034;7.006;2022-09-09T11:43:39;3.60;;;0.97;;
10661;SDS011;5379;51.034;7.006;2022-09-09T11:46:09;3.07;;;0.83;;
10661;SDS011;5379;51.034;7.006;2022-09-09T11:48:39;0.73;;;0.70;;
10661;SDS011;5379;51.034;7.006;2022-09-09T11:51:09;2.83;;;1.17;;
10661;SDS011;5379;51.034;7.006;2022-09-09T11:53:48;1.00;;;0.70;;
10661;SDS011;5379;51.034;7.006;2022-09-09T11:56:29;0.80;;;0.80;;
10661;SDS011;5379;51.034;7.006;2022-09-09T11:58:59;0.97;;;0.93;;
10661;SDS011;5379;51.034;7.006;2022-09-09T12:01:39;1.63;;;1.00;;
10661;SDS011;5379;51.034;7.006;2022-09-09T12:04:13;2.30;;;1.20;;
10661;SDS011;5379;51.034;7.006;2022-09-09T12:06:53;1.03;;;0.90;;
10661;SDS011;5379;51.034;7.006;2022-09-09T12:09:25;1.03;;;0.63;;
10661;SDS011;5379;51.034;7.006;2022-09-09T12:12:04;1.87;;;1.10;;
10661;SDS011;5379;51.034;7.006;2022-09-09T12:14:54;2.03;;;1.10;;
10661;SDS011;5379;51.034;7.006;2022-09-09T12:17:26;0.93;;;0.93;;
10661;SDS011;5379;51.034;7.006;2022-09-09T12:20:03;1.30;;;1.00;;
10661;SDS011;5379;51.034;7.006;2022-09-09T12:22:37;0.87;;;0.67;;
10661;SDS011;5379;51.034;7.006;2022-09-09T12:25:17;4.27;;;1.20;;
10661;SDS011;5379;51.034;7.006;2022-09-09T12:27:55;1.63;;;1.07;;
10661;SDS011;5379;51.034;7.006;2022-09-09T12:30:30;0.80;;;0.80;;
10661;SDS011;5379;51.034;7.006;2022-09-09T12:33:06;4.67;;;0.70;;
10661;SDS011;5379;51.034;7.006;2022-09-09T12:35:37;0.70;;;0.70;;
10661;SDS011;5379;51.034;7.006;2022-09-09T12:38:06;1.07;;;0.93;;
10661;SDS011;5379;51.034;7.006;2022-09-09T12:40:40;3.30;;;1.07;;
10661;SDS011;5379;51.034;7.006;2022-09-09T12:43:16;3.20;;;0.97;;
10661;SDS011;5379;51.034;7.006;2022-09-09T12:45:45;7.93;;;1.10;;
10661;SDS011;5379;51.034;7.006;2022-09-09T12:48:16;1.27;;;1.07;;
10661;SDS011;5379;51.034;7.006;2022-09-09T12:50:47;0.80;;;0.80;;
10661;SDS011;5379;51.034;7.006;2022-09-09T12:53:17;3.23;;;0.73;;
10661;SDS011;5379;51.034;7.006;2022-09-09T12:55:52;0.67;;;0.60;;
10661;SDS011;5379;51.034;7.006;2022-09-09T12:58:22;2.17;;;1.20;;
10661;SDS011;5379;51.034;7.006;2022-09-09T13:00:50;2.27;;;0.93;;
10661;SDS011;5379;51.034;7.006;2022-09-09T13:03:21;0.90;;;0.90;;
10661;SDS011;5379;51.034;7.006;2022-09-09T13:05:50;1.10;;;0.90;;
10661;SDS011;5379;51.034;7.006;2022-09-09T13:08:18;1.23;;;0.80;;
10661;SDS011;5379;51.034;7.006;2022-09-09T13:10:47;1.63;;;0.80;;
10661;SDS011;5379;51.034;7.006;2022-09-09T13:13:19;1.03;;;0.60;;
10661;SDS011;5379;51.034;7.006;2022-09-09T13:15:49;1.33;;;0.90;;
10661;SDS011;5379;51.034;7.006;2022-09-09T13:18:19;0.53;;;0.53;;
10661;SDS011;5379;51.034;7.006;2022-09-09T13:20:49;2.57;;;0.90;;
10661;SDS011;5379;51.034;7.006;2022-09-09T13:23:17;1.80;;;1.10;;
10661;SDS011;5379;51.034;7.006;2022-09-09T13:25:52;1.43;;;1.10;;
10661;SDS011;5379;51.034;7.006;2022-09-09T13:28:20;0.70;;;0.70;;
10661;SDS011;5379;51.034;7.006;2022-09-09T13:30:59;2.40;;;1.07;;
10661;SDS011;5379;51.034;7.006;2022-09-09T13:33:31;0.90;;;0.87;;
10661;SDS011;5379;51.034;7.006;2022-09-09T13:36:00;0.70;;;0.70;;
10661;SDS011;5379;51.034;7.006;2022-09-09T13:38:31;1.40;;;1.30;;
10661;SDS011;5379;51.034;7.006;2022-09-09T13:41:00;1.40;;;1.17;;
10661;SDS011;5379;51.034;7.006;2022-09-09T13:43:30;1.50;;;1.40;;
10661;SDS011;5379;51.034;7.006;2022-09-09T13:46:00;5.00;;;1.10;;
10661;SDS011;5379;51.034;7.006;2022-09-09T13:48:31;3.57;;;1.47;;
10661;SDS011;5379;51.034;7.006;2022-09-09T13:50:59;3.13;;;2.20;;
10661;SDS011;5379;51.034;7.006;2022-09-09T13:53:28;2.13;;;1.57;;
10661;SDS011;5379;51.034;7.006;2022-09-09T13:55:55;4.93;;;1.50;;
10661;SDS011;5379;51.034;7.006;2022-09-09T13:58:23;0.90;;;0.90;;
10661;SDS011;5379;51.034;7.006;2022-09-09T14:00:51;1.63;;;1.20;;
10661;SDS011;5379;51.034;7.006;2022-09-09T14:03:19;4.67;;;2.57;;
10661;SDS011;5379;51.034;7.006;2022-09-09T14:05:48;1.30;;;1.20;;
10661;SDS011;5379;51.034;7.006;2022-09-09T14:08:22;2.93;;;1.67;;
10661;SDS011;5379;51.034;7.006;2022-09-09T14:10:51;4.30;;;1.40;;
10661;SDS011;5379;51.034;7.006;2022-09-09T14:13:21;1.40;;;1.30;;
10661;SDS011;5379;51.034;7.006;2022-09-09T14:15:48;1.10;;;1.10;;
10661;SDS011;5379;51.034;7.006;2022-09-09T14:18:15;1.30;;;1.10;;
10661;SDS011;5379;51.034;7.006;2022-09-09T14:20:43;1.70;;;0.83;;
10661;SDS011;5379;51.034;7.006;2022-09-09T14:23:13;7.93;;;2.73;;
10661;SDS011;5379;51.034;7.006;2022-09-09T14:25:41;1.83;;;1.33;;
10661;SDS011;5379;51.034;7.006;2022-09-09T14:28:09;5.33;;;2.23;;
10661;SDS011;5379;51.034;7.006;2022-09-09T14:30:38;2.67;;;2.33;;
10661;SDS011;5379;51.034;7.006;2022-09-09T14:33:06;3.00;;;1.43;;
10661;SDS011;5379;51.034;7.006;2022-09-09T14:35:34;5.07;;;1.53;;
10661;SDS011;5379;51.034;7.006;2022-09-09T14:38:01;2.20;;;1.40;;
10661;SDS011;5379;51.034;7.006;2022-09-09T14:40:30;1.97;;;1.70;;
10661;SDS011;5379;51.034;7.006;2022-09-09T14:42:58;6.03;;;2.60;;
10661;SDS011;5379;51.034;7.006;2022-09-09T14:45:26;7.57;;;2.73;;
10661;SDS011;5379;51.034;7.006;2022-09-09T14:47:53;4.63;;;2.90;;
10661;SDS011;5379;51.034;7.006;2022-09-09T14:50:21;7.77;;;3.47;;
10661;SDS011;5379;51.034;7.006;2022-09-09T14:52:49;3.87;;;2.70;;
10661;SDS011;5379;51.034;7.006;2022-09-09T14:55:16;1.33;;;1.23;;
10661;SDS011;5379;51.034;7.006;2022-09-09T14:57:45;1.83;;;1.10;;
10661;SDS011;5379;51.034;7.006;2022-09-09T15:00:13;0.70;;;0.70;;
10661;SDS011;5379;51.034;7.006;2022-09-09T15:02:41;0.30;;;0.30;;
10661;SDS011;5379;51.034;7.006;2022-09-09T15:05:08;0.77;;;0.73;;
10661;SDS011;5379;51.034;7.006;2022-09-09T15:07:35;4.73;;;0.80;;
10661;SDS011;5379;51.034;7.006;2022-09-09T15:10:03;0.70;;;0.70;;
10661;SDS011;5379;51.034;7.006;2022-09-09T15:12:31;0.90;;;0.90;;
10661;SDS011;5379;51.034;7.006;2022-09-09T15:15:01;1.40;;;1.30;;
10661;SDS011;5379;51.034;7.006;2022-09-09T15:17:29;1.40;;;1.00;;
10661;SDS011;5379;51.034;7.006;2022-09-09T15:19:57;1.87;;;0.90;;
10661;SDS011;5379;51.034;7.006;2022-09-09T15:22:29;1.20;;;0.63;;
10661;SDS011;5379;51.034;7.006;2022-09-09T15:25:05;1.50;;;1.40;;
10661;SDS011;5379;51.034;7.006;2022-09-09T15:27:33;0.80;;;0.80;;
10661;SDS011;5379;51.034;7.006;2022-09-09T15:30:01;1.00;;;0.90;;